Time;durP1;ratioP1;P1;durP2;ratioP2;P2;SDS_P1;SDS_P2;PMS_P1;PMS_P2;Temp;Humidity;BMP_temperature;BMP_pressure;BME280_temperature;BME280_humidity;BME280_pressure;Samples;Min_cycle;Max_cycle;Signal;HPM_P1;HPM_P2
2023/09/26 00:01:49;;;;;;;14.75;7.97;;;16.10;99.90;;;;;;4191602;28;20500;-59
2023/09/26 00:03:50;;;;;;;10.85;7.72;;;16.10;99.90;;;;;;4193752;28;20040;-59
2023/09/26 00:05:54;;;;;;;13.55;6.80;;;16.10;99.90;;;;;;4192733;28;20033;-59
2023/09/26 00:07:55;;;;;;;14.32;7.40;;;16.10;99.90;;;;;;4174920;28;20067;-58
2023/09/26 00:09:56;;;;;;;12.77;7.40;;;16.10;99.90;;;;;;4191185;28;20834;-61
2023/09/26 00:11:57;;;;;;;10.95;7.43;;;16.00;99.90;;;;;;4193441;28;20041;-62
2023/09/26 00:13:59;;;;;;;11.40;6.93;;;16.00;99.90;;;;;;4192204;28;20033;-58
2023/09/26 00:16:00;;;;;;;14.40;7.72;;;16.00;99.90;;;;;;4192984;28;20052;-60
2023/09/26 00:18:02;;;;;;;12.45;6.60;;;15.90;99.90;;;;;;4191584;28;20021;-59
2023/09/26 00:20:09;;;;;;;9.55;6.05;;;15.80;99.90;;;;;;4191607;28;20036;-59
2023/09/26 00:22:11;;;;;;;9.88;6.85;;;15.80;99.90;;;;;;4192841;28;20040;-59
2023/09/26 00:24:12;;;;;;;9.13;6.93;;;15.70;99.90;;;;;;4192880;28;20350;-61
2023/09/26 00:26:13;;;;;;;12.18;7.32;;;15.70;99.90;;;;;;4193120;28;20053;-60
2023/09/26 00:28:14;;;;;;;14.55;7.32;;;15.70;99.90;;;;;;4191547;28;20052;-60
2023/09/26 00:30:16;;;;;;;8.65;7.10;;;15.70;99.90;;;;;;4192500;28;20489;-59
2023/09/26 00:32:18;;;;;;;14.88;6.65;;;15.70;99.90;;;;;;4191812;28;20114;-60
2023/09/26 00:34:19;;;;;;;12.05;6.93;;;15.70;99.90;;;;;;4192591;28;20597;-59
2023/09/26 00:36:20;;;;;;;9.98;6.80;;;15.60;99.90;;;;;;4192597;28;20070;-62
2023/09/26 00:38:22;;;;;;;9.55;6.50;;;15.70;99.90;;;;;;4193849;28;20465;-61
2023/09/26 00:40:23;;;;;;;12.57;7.18;;;15.70;99.90;;;;;;4191694;28;20086;-58
2023/09/26 00:42:26;;;;;;;12.60;7.28;;;15.70;99.90;;;;;;4193537;28;20527;-61
2023/09/26 00:44:27;;;;;;;11.02;6.70;;;15.60;99.90;;;;;;4191253;28;20115;-58
2023/09/26 00:46:28;;;;;;;9.15;6.10;;;15.60;99.90;;;;;;4193827;28;20510;-60
2023/09/26 00:48:30;;;;;;;9.88;6.45;;;15.60;99.90;;;;;;4193650;28;20036;-59
2023/09/26 00:50:31;;;;;;;10.05;6.57;;;15.50;99.90;;;;;;4194962;28;20044;-60
2023/09/26 00:52:33;;;;;;;10.65;6.65;;;15.50;99.90;;;;;;4194871;28;20045;-60
2023/09/26 00:54:35;;;;;;;14.68;6.63;;;15.40;99.90;;;;;;4195867;28;20032;-60
2023/09/26 00:56:38;;;;;;;12.88;5.95;;;15.50;99.90;;;;;;4195674;28;20024;-57
2023/09/26 00:58:41;;;;;;;10.80;7.10;;;15.40;99.90;;;;;;4178921;28;20037;-59
2023/09/26 01:00:44;;;;;;;7.63;6.43;;;15.50;99.90;;;;;;4188611;28;20114;-59
2023/09/26 01:02:45;;;;;;;11.40;6.22;;;15.40;99.90;;;;;;4194467;28;20078;-58
2023/09/26 01:04:46;;;;;;;8.77;6.07;;;15.50;99.90;;;;;;4195383;28;20139;-60
2023/09/26 01:06:48;;;;;;;9.57;6.63;;;15.50;99.90;;;;;;4194470;28;20401;-58
2023/09/26 01:08:49;;;;;;;12.70;6.72;;;15.50;99.90;;;;;;4196457;28;20024;-58
2023/09/26 01:10:50;;;;;;;9.75;6.18;;;15.50;99.90;;;;;;4195401;28;20029;-61
2023/09/26 01:12:52;;;;;;;15.95;6.32;;;15.50;99.90;;;;;;4195647;28;20362;-60
2023/09/26 01:14:54;;;;;;;10.05;6.25;;;15.50;99.90;;;;;;4195094;28;20086;-58
2023/09/26 01:16:56;;;;;;;10.27;6.10;;;15.40;99.90;;;;;;4195848;28;20358;-58
2023/09/26 01:18:57;;;;;;;10.82;6.05;;;15.40;99.90;;;;;;4194177;28;20048;-60
2023/09/26 01:20:58;;;;;;;9.50;6.05;;;15.40;99.90;;;;;;4195157;28;20098;-60
2023/09/26 01:23:05;;;;;;;10.68;6.65;;;15.40;99.90;;;;;;4194536;28;20056;-58
2023/09/26 01:25:06;;;;;;;10.60;6.20;;;15.40;99.90;;;;;;4195457;28;20481;-59
2023/09/26 01:27:07;;;;;;;7.78;6.05;;;15.40;99.90;;;;;;4194982;28;20041;-60
2023/09/26 01:29:10;;;;;;;10.55;6.03;;;15.40;99.90;;;;;;4194726;28;20033;-58
2023/09/26 01:31:11;;;;;;;10.77;6.45;;;15.40;99.90;;;;;;4194624;28;20040;-60
2023/09/26 01:33:16;;;;;;;10.55;6.20;;;15.30;99.90;;;;;;4194462;28;20044;-59
2023/09/26 01:35:17;;;;;;;8.52;5.65;;;15.30;99.90;;;;;;4195685;28;20032;-60
2023/09/26 01:37:20;;;;;;;12.05;6.55;;;15.30;99.90;;;;;;4194437;28;20045;-61
2023/09/26 01:39:21;;;;;;;10.45;6.97;;;15.30;99.90;;;;;;4195853;28;20086;-59
2023/09/26 01:41:23;;;;;;;9.55;6.13;;;15.20;99.90;;;;;;4194655;28;20106;-55
2023/09/26 01:43:25;;;;;;;8.75;6.15;;;15.20;99.90;;;;;;4195441;28;20033;-59
2023/09/26 01:45:26;;;;;;;8.68;5.93;;;15.20;99.90;;;;;;4194002;28;20526;-60
2023/09/26 01:47:42;;;;;;;9.45;6.30;;;15.10;99.90;;;;;;4195030;28;20105;-58
2023/09/26 01:49:43;;;;;;;10.05;6.65;;;15.10;99.90;;;;;;4194119;28;20539;-60
2023/09/26 01:51:44;;;;;;;6.85;5.68;;;15.00;99.90;;;;;;4195699;28;20066;-60
2023/09/26 01:53:45;;;;;;;8.85;6.22;;;15.00;99.90;;;;;;4194051;28;20032;-59
2023/09/26 01:55:46;;;;;;;14.60;6.57;;;15.00;99.90;;;;;;4194504;28;20036;-60
2023/09/26 01:57:49;;;;;;;9.38;6.75;;;15.00;99.90;;;;;;4194242;28;20074;-57
2023/09/26 01:59:50;;;;;;;12.02;5.95;;;15.00;99.90;;;;;;4193485;28;20040;-58
2023/09/26 02:01:51;;;;;;;11.23;6.95;;;14.90;99.90;;;;;;4193317;28;20045;-59
2023/09/26 02:03:52;;;;;;;12.63;6.03;;;14.80;99.90;;;;;;4195242;28;20495;-58
2023/09/26 02:05:56;;;;;;;10.73;6.38;;;14.80;99.90;;;;;;4193560;28;20074;-61
2023/09/26 02:07:58;;;;;;;10.60;5.95;;;14.70;99.90;;;;;;4193949;28;20085;-60
2023/09/26 02:09:59;;;;;;;9.38;5.97;;;14.60;99.90;;;;;;4195156;28;20366;-59
2023/09/26 02:12:03;;;;;;;10.40;6.80;;;14.60;99.90;;;;;;4194446;28;20028;-59
2023/09/26 02:14:05;;;;;;;11.15;6.68;;;14.60;99.90;;;;;;4193946;28;20044;-62
2023/09/26 02:16:12;;;;;;;11.70;6.15;;;14.50;99.90;;;;;;4193527;28;20090;-62
2023/09/26 02:18:13;;;;;;;11.15;6.43;;;14.60;99.90;;;;;;4194772;28;20725;-63
2023/09/26 02:20:18;;;;;;;11.27;6.40;;;14.50;99.90;;;;;;4193269;28;20044;-61
2023/09/26 02:22:19;;;;;;;8.82;6.47;;;14.60;99.90;;;;;;4194171;28;20044;-62
2023/09/26 02:24:20;;;;;;;11.02;6.40;;;14.50;99.90;;;;;;4193481;28;20040;-62
2023/09/26 02:26:21;;;;;;;10.38;5.95;;;14.60;99.90;;;;;;4194080;28;20056;-60
2023/09/26 02:28:22;;;;;;;18.17;7.60;;;14.50;99.90;;;;;;4194098;28;20024;-61
2023/09/26 02:30:26;;;;;;;8.95;6.30;;;14.50;99.90;;;;;;4194892;28;20097;-61
2023/09/26 02:32:27;;;;;;;7.53;5.80;;;14.50;99.90;;;;;;4192324;28;20105;-62
2023/09/26 02:34:28;;;;;;;9.23;6.15;;;14.60;99.90;;;;;;4193932;28;20582;-62
2023/09/26 02:36:30;;;;;;;8.60;5.95;;;14.60;99.90;;;;;;4192764;28;20489;-61
2023/09/26 02:38:31;;;;;;;26.75;6.45;;;14.60;99.90;;;;;;4176733;28;20029;-63
2023/09/26 02:40:32;;;;;;;10.07;5.90;;;14.60;99.90;;;;;;4194352;28;20081;-60
2023/09/26 02:42:33;;;;;;;9.40;5.72;;;14.60;99.90;;;;;;4193747;28;20037;-60
2023/09/26 02:44:34;;;;;;;11.65;5.85;;;14.60;99.90;;;;;;4193152;28;20037;-60
2023/09/26 02:46:35;;;;;;;12.95;5.97;;;14.60;99.90;;;;;;4193019;28;20040;-59
2023/09/26 02:48:37;;;;;;;9.95;6.45;;;14.60;99.90;;;;;;4194126;28;20404;-59
2023/09/26 02:50:38;;;;;;;10.23;6.32;;;14.50;99.90;;;;;;4193719;28;20032;-61
2023/09/26 02:52:42;;;;;;;8.85;5.22;;;14.50;99.90;;;;;;4193481;28;20070;-61
2023/09/26 02:54:43;;;;;;;14.07;6.45;;;14.50;99.90;;;;;;4175033;28;20111;-62
2023/09/26 02:56:44;;;;;;;10.90;6.10;;;14.50;99.90;;;;;;4176301;28;20037;-62
2023/09/26 02:58:45;;;;;;;11.38;6.30;;;14.50;99.90;;;;;;4192155;28;20048;-62
2023/09/26 03:00:49;;;;;;;12.32;7.55;;;14.50;99.90;;;;;;4175841;28;20087;-60
2023/09/26 03:02:50;;;;;;;12.93;6.22;;;14.50;99.90;;;;;;4193324;28;20085;-61
2023/09/26 03:04:52;;;;;;;7.20;5.50;;;14.40;99.90;;;;;;4194756;28;20028;-60
2023/09/26 03:06:53;;;;;;;9.00;6.07;;;14.40;99.90;;;;;;4192414;28;20012;-60
2023/09/26 03:08:54;;;;;;;10.20;6.65;;;14.40;99.90;;;;;;4194022;28;20032;-62
2023/09/26 03:10:58;;;;;;;10.43;6.13;;;14.30;99.90;;;;;;4192941;28;20029;-61
2023/09/26 03:12:59;;;;;;;14.93;6.30;;;14.30;99.90;;;;;;4192537;28;20036;-62
2023/09/26 03:15:02;;;;;;;12.88;6.38;;;14.30;99.90;;;;;;4192505;28;20366;-61
2023/09/26 03:17:05;;;;;;;8.95;6.13;;;14.30;99.90;;;;;;4193237;28;20082;-61
2023/09/26 03:19:08;;;;;;;10.00;6.90;;;14.20;99.90;;;;;;4192026;28;20048;-61
2023/09/26 03:21:11;;;;;;;12.57;6.00;;;14.20;99.90;;;;;;4191881;28;20551;-61
2023/09/26 03:23:12;;;;;;;11.45;6.72;;;14.20;99.90;;;;;;4193834;28;20028;-59
2023/09/26 03:25:13;;;;;;;12.63;6.10;;;14.10;99.90;;;;;;4174427;28;20041;-61
2023/09/26 03:27:14;;;;;;;14.52;7.70;;;14.10;99.90;;;;;;4192942;28;20044;-59
2023/09/26 03:29:16;;;;;;;8.27;5.82;;;14.00;99.90;;;;;;4192889;28;20401;-58
2023/09/26 03:31:17;;;;;;;10.52;6.53;;;14.00;99.90;;;;;;4192939;28;20057;-56
2023/09/26 03:33:18;;;;;;;9.48;7.05;;;14.00;99.90;;;;;;4192067;28;20058;-59
2023/09/26 03:35:19;;;;;;;9.00;6.57;;;14.00;99.90;;;;;;4194187;28;20081;-59
2023/09/26 03:37:20;;;;;;;12.23;7.13;;;14.00;99.90;;;;;;4191999;28;20036;-57
2023/09/26 03:39:21;;;;;;;11.23;6.72;;;14.00;99.90;;;;;;4193452;28;20036;-57
2023/09/26 03:41:22;;;;;;;10.45;7.03;;;14.00;99.90;;;;;;4192900;28;20052;-59
2023/09/26 03:43:25;;;;;;;11.63;6.05;;;14.00;99.90;;;;;;4192932;28;20090;-60
2023/09/26 03:45:26;;;;;;;12.05;6.55;;;13.90;99.90;;;;;;4193106;28;20045;-60
2023/09/26 03:47:28;;;;;;;11.95;7.20;;;13.90;99.90;;;;;;4193317;28;20041;-59
2023/09/26 03:49:29;;;;;;;13.52;6.47;;;13.90;99.90;;;;;;4193559;28;20020;-60
2023/09/26 03:51:30;;;;;;;9.32;6.28;;;13.90;99.90;;;;;;4193043;28;20040;-59
2023/09/26 03:53:31;;;;;;;11.93;6.60;;;13.90;99.90;;;;;;4194265;28;20037;-59
2023/09/26 03:55:32;;;;;;;16.40;7.30;;;13.90;99.90;;;;;;4191805;28;20067;-58
2023/09/26 03:57:33;;;;;;;13.95;6.38;;;13.90;99.90;;;;;;4193218;28;20036;-59
2023/09/26 03:59:34;;;;;;;11.90;6.68;;;14.00;99.90;;;;;;4191625;28;20036;-61
2023/09/26 04:01:36;;;;;;;10.05;6.30;;;14.00;99.90;;;;;;4193446;28;20098;-59
2023/09/26 04:03:38;;;;;;;12.55;6.85;;;14.00;99.90;;;;;;4192455;28;20040;-59
2023/09/26 04:05:40;;;;;;;11.10;6.57;;;14.00;99.90;;;;;;4193398;28;20124;-59
2023/09/26 04:07:41;;;;;;;9.95;7.30;;;14.00;99.90;;;;;;4183339;28;20037;-54
2023/09/26 04:09:42;;;;;;;14.90;6.22;;;14.00;99.90;;;;;;4193141;28;20044;-58
2023/09/26 04:11:44;;;;;;;14.55;6.85;;;14.00;99.90;;;;;;4192119;28;20044;-59
2023/09/26 04:13:45;;;;;;;10.73;6.88;;;14.00;99.90;;;;;;4193384;28;20033;-60
2023/09/26 04:15:46;;;;;;;12.00;6.57;;;14.00;99.90;;;;;;4191921;28;20667;-61
2023/09/26 04:17:47;;;;;;;16.13;6.72;;;14.00;99.90;;;;;;4192734;28;20024;-62
2023/09/26 04:19:49;;;;;;;9.80;5.95;;;14.00;99.90;;;;;;4174383;28;20029;-60
2023/09/26 04:21:53;;;;;;;9.18;6.55;;;14.00;99.90;;;;;;4191775;28;20389;-57
2023/09/26 04:23:54;;;;;;;10.85;6.70;;;14.10;99.90;;;;;;4195774;28;20134;-59
2023/09/26 04:25:56;;;;;;;12.48;6.40;;;14.10;99.90;;;;;;4194380;28;20392;-59
2023/09/26 04:27:58;;;;;;;13.20;7.00;;;14.10;99.90;;;;;;4195723;28;20033;-60
2023/09/26 04:29:59;;;;;;;9.43;6.50;;;14.10;99.90;;;;;;4193938;28;20033;-58
2023/09/26 04:32:00;;;;;;;8.07;6.10;;;14.10;99.90;;;;;;4195439;28;20037;-59
2023/09/26 04:34:01;;;;;;;13.45;6.70;;;14.10;99.90;;;;;;4195536;28;20028;-57
2023/09/26 04:36:02;;;;;;;22.42;9.55;;;14.20;99.90;;;;;;4196339;28;20032;-60
2023/09/26 04:38:04;;;;;;;16.50;7.45;;;14.30;99.90;;;;;;4194998;28;20008;-59
2023/09/26 04:40:10;;;;;;;9.90;7.40;;;14.50;99.90;;;;;;4194261;28;22094;-60
2023/09/26 04:42:11;;;;;;;14.65;6.63;;;14.60;99.90;;;;;;4176829;28;20106;-58
2023/09/26 04:44:12;;;;;;;13.40;7.47;;;14.90;99.90;;;;;;4195373;28;20029;-58
2023/09/26 04:46:15;;;;;;;10.45;6.28;;;15.00;99.90;;;;;;4194600;28;20041;-60
2023/09/26 04:48:16;;;;;;;11.65;6.45;;;15.20;99.90;;;;;;4195330;28;20128;-59
2023/09/26 04:50:17;;;;;;;9.23;6.55;;;15.30;99.90;;;;;;4194180;28;20044;-59
2023/09/26 04:52:18;;;;;;;11.43;6.13;;;15.60;99.90;;;;;;4194493;28;20439;-60
2023/09/26 04:54:19;;;;;;;9.10;5.72;;;15.70;99.90;;;;;;4195267;28;20078;-60
2023/09/26 04:56:21;;;;;;;12.20;5.97;;;16.10;99.90;;;;;;4194837;28;20640;-56
2023/09/26 04:58:22;;;;;;;15.65;6.32;;;16.50;99.90;;;;;;4196073;28;20045;-60
2023/09/26 05:00:23;;;;;;;12.38;6.10;;;16.90;99.90;;;;;;4194966;28;20029;-61
2023/09/26 05:02:25;;;;;;;11.68;5.85;;;17.30;99.90;;;;;;4195773;28;20048;-57
2023/09/26 05:04:26;;;;;;;20.00;6.03;;;17.70;99.90;;;;;;4194815;28;20036;-63
2023/09/26 05:06:29;;;;;;;11.77;5.45;;;18.10;99.90;;;;;;4195434;28;20082;-63
2023/09/26 05:08:30;;;;;;;15.82;5.63;;;18.40;99.90;;;;;;4194791;28;20032;-59
2023/09/26 05:10:31;;;;;;;11.32;5.40;;;18.70;99.90;;;;;;4195417;28;20123;-59
2023/09/26 05:12:35;;;;;;;14.70;5.80;;;19.20;99.90;;;;;;4195110;28;20028;-62
2023/09/26 05:14:37;;;;;;;15.50;5.68;;;19.50;99.90;;;;;;4195332;28;20550;-63
2023/09/26 05:16:38;;;;;;;8.80;4.70;;;19.50;99.90;;;;;;4194157;28;20082;-63
2023/09/26 05:18:39;;;;;;;10.07;5.72;;;19.70;99.90;;;;;;4194528;28;20044;-64
2023/09/26 05:20:40;;;;;;;7.60;4.45;;;19.90;99.90;;;;;;4194427;28;20048;-63
2023/09/26 05:22:44;;;;;;;5.55;4.05;;;20.00;99.90;;;;;;4194288;28;20048;-63
2023/09/26 05:24:45;;;;;;;11.10;4.65;;;19.90;99.90;;;;;;4194509;28;20086;-61
2023/09/26 05:26:46;;;;;;;11.27;5.88;;;20.10;99.90;;;;;;4193944;28;20044;-62
2023/09/26 05:28:47;;;;;;;8.52;4.18;;;20.30;99.90;;;;;;4195278;28;20101;-62
2023/09/26 05:30:48;;;;;;;12.93;4.50;;;20.70;99.90;;;;;;4176886;28;20468;-61
2023/09/26 05:32:50;;;;;;;13.63;5.60;;;21.00;99.90;;;;;;4195589;28;20082;-62
2023/09/26 05:34:51;;;;;;;9.93;4.40;;;21.30;99.90;;;;;;4193596;28;20435;-64
2023/09/26 05:36:52;;;;;;;12.82;5.88;;;21.40;99.90;;;;;;4195951;28;20032;-61
2023/09/26 05:38:53;;;;;;;10.80;4.85;;;21.80;99.90;;;;;;4176891;28;20029;-61
2023/09/26 05:40:54;;;;;;;9.35;4.05;;;22.00;99.90;;;;;;4194869;28;20453;-62
2023/09/26 05:42:55;;;;;;;13.38;5.15;;;22.00;99.90;;;;;;4193533;28;20106;-61
2023/09/26 05:44:56;;;;;;;9.65;4.40;;;22.20;99.90;;;;;;4194783;28;20045;-63
2023/09/26 05:46:57;;;;;;;7.85;3.95;;;21.90;99.90;;;;;;4194280;28;20074;-62
2023/09/26 05:48:59;;;;;;;9.93;4.28;;;21.70;99.90;;;;;;4195171;28;20033;-62
2023/09/26 05:51:04;;;;;;;8.73;4.07;;;22.10;99.90;;;;;;4194686;28;20020;-62
2023/09/26 05:53:05;;;;;;;10.52;5.00;;;22.60;99.90;;;;;;4193936;28;20614;-61
2023/09/26 05:55:07;;;;;;;12.43;4.28;;;22.90;99.90;;;;;;4194133;28;20043;-62
2023/09/26 05:57:08;;;;;;;11.18;4.80;;;23.20;99.90;;;;;;4193599;28;20028;-63
2023/09/26 05:59:09;;;;;;;17.15;5.93;;;23.70;99.90;;;;;;4194112;28;20032;-61
2023/09/26 06:01:11;;;;;;;8.35;4.88;;;24.20;99.90;;;;;;4193342;28;20029;-61
2023/09/26 06:03:14;;;;;;;7.25;4.00;;;24.50;99.90;;;;;;4194694;28;20048;-60
2023/09/26 06:05:15;;;;;;;9.57;4.00;;;24.80;99.90;;;;;;4192637;28;20036;-62
2023/09/26 06:07:16;;;;;;;10.25;3.75;;;25.20;99.90;;;;;;4195224;28;20078;-62
2023/09/26 06:09:18;;;;;;;7.30;3.67;;;25.40;99.90;;;;;;4194204;28;20447;-63
2023/09/26 06:11:19;;;;;;;10.25;3.83;;;25.70;99.90;;;;;;4195164;28;20406;-62
2023/09/26 06:13:21;;;;;;;7.78;3.80;;;25.80;99.90;;;;;;4193739;28;20366;-61
2023/09/26 06:15:22;;;;;;;11.35;4.38;;;25.80;99.90;;;;;;4194171;28;20033;-64
2023/09/26 06:17:23;;;;;;;8.77;3.85;;;25.80;99.90;;;;;;4193599;28;20028;-61
2023/09/26 06:19:24;;;;;;;14.55;4.40;;;26.10;99.90;;;;;;4193703;28;20139;-63
2023/09/26 06:21:26;;;;;;;11.85;4.00;;;26.10;99.90;;;;;;4193090;28;20102;-61
2023/09/26 06:23:29;;;;;;;11.13;4.65;;;26.30;99.90;;;;;;4193080;28;20451;-61
2023/09/26 06:25:30;;;;;;;7.88;3.63;;;26.50;99.90;;;;;;4194155;28;20314;-62
2023/09/26 06:27:38;;;;;;;8.68;4.25;;;26.50;99.50;;;;;;4192964;28;20159;-62
2023/09/26 06:29:39;;;;;;;10.00;4.03;;;26.60;99.00;;;;;;4193623;28;20040;-63
2023/09/26 06:31:42;;;;;;;8.38;3.95;;;26.60;98.90;;;;;;4193742;28;20728;-61
2023/09/26 06:33:43;;;;;;;6.80;3.70;;;26.80;98.70;;;;;;4194783;28;20362;-62
2023/09/26 06:35:44;;;;;;;10.20;3.67;;;26.70;98.50;;;;;;4192889;28;20086;-61
2023/09/26 06:37:45;;;;;;;6.68;3.70;;;26.50;98.40;;;;;;4176195;28;20041;-62
2023/09/26 06:39:46;;;;;;;10.30;4.38;;;26.20;98.60;;;;;;4194017;28;20542;-62
2023/09/26 06:41:47;;;;;;;8.95;4.13;;;26.10;98.60;;;;;;4194072;28;20045;-61
2023/09/26 06:43:48;;;;;;;9.88;3.63;;;26.20;98.60;;;;;;4192578;28;20037;-62
2023/09/26 06:45:49;;;;;;;10.02;4.18;;;26.20;98.40;;;;;;4193308;28;20036;-59
2023/09/26 06:47:51;;;;;;;8.85;3.80;;;26.30;98.40;;;;;;4193265;28;20086;-63
2023/09/26 06:49:53;;;;;;;7.90;4.25;;;26.30;98.20;;;;;;4194643;28;20108;-61
2023/09/26 06:51:55;;;;;;;12.88;4.32;;;26.30;98.10;;;;;;4192820;28;20040;-61
2023/09/26 06:53:56;;;;;;;6.57;3.72;;;26.30;97.90;;;;;;4193047;28;20105;-59
2023/09/26 06:56:02;;;;;;;9.43;4.18;;;26.10;98.10;;;;;;4193590;28;20188;-62
2023/09/26 06:58:03;;;;;;;8.85;4.32;;;26.10;98.10;;;;;;4193793;28;20032;-61
2023/09/26 07:00:05;;;;;;;10.80;4.55;;;26.40;98.00;;;;;;4192862;28;20434;-62
2023/09/26 07:02:08;;;;;;;9.20;4.25;;;26.60;97.80;;;;;;4175107;28;20040;-63
2023/09/26 07:04:14;;;;;;;7.25;3.92;;;26.80;97.70;;;;;;4192833;28;20041;-62
2023/09/26 07:06:16;;;;;;;6.75;4.38;;;27.10;97.40;;;;;;4192349;28;20511;-63
2023/09/26 07:08:17;;;;;;;9.75;5.07;;;27.30;97.20;;;;;;4193433;28;20157;-61
2023/09/26 07:10:18;;;;;;;10.48;4.55;;;27.20;96.90;;;;;;4193507;28;20093;-60
2023/09/26 07:12:19;;;;;;;9.75;3.95;;;27.40;96.90;;;;;;4193540;28;20129;-58
2023/09/26 07:14:20;;;;;;;10.90;4.35;;;27.30;96.80;;;;;;4192083;28;20056;-57
2023/09/26 07:16:21;;;;;;;14.85;5.25;;;26.80;96.90;;;;;;4193436;28;20098;-60
2023/09/26 07:18:22;;;;;;;14.68;4.80;;;26.00;97.40;;;;;;4191810;28;20044;-61
2023/09/26 07:20:23;;;;;;;13.75;4.82;;;26.10;97.60;;;;;;4193389;28;20037;-61
2023/09/26 07:22:24;;;;;;;12.23;5.55;;;26.00;97.70;;;;;;4193022;28;20063;-61
2023/09/26 07:24:26;;;;;;;15.68;5.50;;;26.20;97.70;;;;;;4193212;28;20040;-60
2023/09/26 07:26:27;;;;;;;13.57;4.93;;;26.20;97.40;;;;;;4192689;28;20098;-61
2023/09/26 07:28:28;;;;;;;9.23;4.97;;;25.90;97.70;;;;;;4193622;28;20126;-62
2023/09/26 07:30:30;;;;;;;14.07;4.78;;;26.20;97.60;;;;;;4193078;28;20025;-60
2023/09/26 07:32:31;;;;;;;15.32;5.93;;;26.30;97.40;;;;;;4193149;28;20028;-59
2023/09/26 07:34:32;;;;;;;11.65;5.20;;;26.80;97.10;;;;;;4192212;28;20422;-60
2023/09/26 07:36:34;;;;;;;14.20;4.80;;;26.40;97.10;;;;;;4191594;28;20044;-61
2023/09/26 07:38:35;;;;;;;13.13;4.72;;;25.80;97.20;;;;;;4193031;28;20032;-59
2023/09/26 07:40:36;;;;;;;9.23;4.80;;;25.20;97.60;;;;;;4192880;28;20122;-60
2023/09/26 07:42:39;;;;;;;9.93;5.25;;;24.40;98.00;;;;;;4175569;28;20087;-62
2023/09/26 07:44:40;;;;;;;13.27;4.20;;;24.00;98.50;;;;;;4191815;28;20048;-61
2023/09/26 07:46:42;;;;;;;10.98;5.18;;;23.80;98.60;;;;;;4193752;28;20473;-61
2023/09/26 07:48:43;;;;;;;14.43;5.32;;;23.60;98.50;;;;;;4191882;28;20074;-60
2023/09/26 07:50:45;;;;;;;12.13;5.07;;;23.60;98.70;;;;;;4192933;28;20094;-61
2023/09/26 07:52:46;;;;;;;11.30;5.53;;;23.50;98.70;;;;;;4192603;28;20145;-62
2023/09/26 07:54:47;;;;;;;10.40;4.82;;;23.40;98.60;;;;;;4194038;28;20021;-62
2023/09/26 07:56:48;;;;;;;9.38;4.47;;;23.20;98.80;;;;;;4194160;28;20477;-60
2023/09/26 07:58:50;;;;;;;10.40;5.07;;;23.10;98.80;;;;;;4195761;28;20036;-58
2023/09/26 08:00:58;;;;;;;16.70;5.70;;;23.40;98.90;;;;;;4196395;28;20492;-61
2023/09/26 08:02:59;;;;;;;9.02;4.55;;;23.80;98.70;;;;;;4196166;28;20435;-59
2023/09/26 08:05:00;;;;;;;8.30;5.00;;;23.90;98.60;;;;;;4196581;28;20020;-60
2023/09/26 08:07:01;;;;;;;14.18;5.28;;;24.20;98.30;;;;;;4195659;28;20403;-60
2023/09/26 08:09:03;;;;;;;7.82;4.40;;;24.60;98.00;;;;;;4195653;28;20041;-59
2023/09/26 08:11:06;;;;;;;10.38;4.95;;;24.40;98.00;;;;;;4195637;28;20477;-62
2023/09/26 08:13:07;;;;;;;8.25;4.65;;;24.40;98.20;;;;;;4197118;28;20101;-60
2023/09/26 08:15:09;;;;;;;7.15;4.55;;;24.30;98.20;;;;;;4195952;28;20040;-64
2023/09/26 08:17:10;;;;;;;11.95;5.30;;;24.00;98.30;;;;;;4196871;28;20079;-60
2023/09/26 08:19:11;;;;;;;17.58;5.20;;;23.80;98.60;;;;;;4195211;28;20042;-60
2023/09/26 08:21:13;;;;;;;10.50;5.15;;;23.90;98.70;;;;;;4196311;28;20036;-61
2023/09/26 08:23:16;;;;;;;10.07;4.85;;;24.10;98.50;;;;;;4194745;28;20499;-60
2023/09/26 08:25:17;;;;;;;5.80;4.70;;;24.00;98.40;;;;;;4196001;28;20032;-62
2023/09/26 08:27:18;;;;;;;9.85;5.65;;;23.90;98.50;;;;;;4195551;28;20048;-63
2023/09/26 08:29:19;;;;;;;15.23;5.78;;;23.80;98.70;;;;;;4196935;28;20376;-63
2023/09/26 08:31:20;;;;;;;13.93;5.10;;;23.80;99.00;;;;;;4194411;28;20094;-62
2023/09/26 08:33:22;;;;;;;8.80;4.65;;;24.20;98.90;;;;;;4195291;28;20531;-61
2023/09/26 08:35:23;;;;;;;20.70;5.75;;;24.30;98.70;;;;;;4195096;28;20666;-62
2023/09/26 08:37:24;;;;;;;11.85;5.53;;;24.50;98.50;;;;;;4195328;28;20045;-63
2023/09/26 08:39:25;;;;;;;12.25;5.15;;;24.30;98.60;;;;;;4196259;28;20024;-64
2023/09/26 08:41:29;;;;;;;10.55;5.05;;;24.20;98.60;;;;;;4194689;28;20090;-64
2023/09/26 08:43:32;;;;;;;10.32;4.85;;;24.00;98.60;;;;;;4195394;28;20058;-61
2023/09/26 08:45:34;;;;;;;9.95;4.82;;;23.80;98.90;;;;;;4194698;28;20098;-65
2023/09/26 08:47:39;;;;;;;11.18;4.38;;;23.80;98.80;;;;;;4196468;28;20120;-63
2023/09/26 08:49:42;;;;;;;9.30;4.82;;;23.80;98.80;;;;;;4195442;28;20519;-61
2023/09/26 08:51:44;;;;;;;9.82;4.40;;;23.80;98.90;;;;;;4196364;28;20034;-61
2023/09/26 08:53:45;;;;;;;7.03;4.13;;;23.70;98.90;;;;;;4194962;28;20050;-63
2023/09/26 08:55:49;;;;;;;7.47;4.32;;;23.70;98.90;;;;;;4195232;28;20098;-63
2023/09/26 08:57:51;;;;;;;12.07;4.30;;;23.80;98.80;;;;;;4194483;28;20101;-63
2023/09/26 08:59:54;;;;;;;10.20;3.92;;;23.90;98.60;;;;;;4196112;28;20084;-61
2023/09/26 09:01:56;;;;;;;8.43;4.35;;;24.10;98.40;;;;;;4194449;28;20090;-62
2023/09/26 09:03:58;;;;;;;6.07;4.00;;;24.00;98.40;;;;;;4195469;28;20106;-61
2023/09/26 09:05:59;;;;;;;7.78;4.47;;;24.00;98.20;;;;;;4195309;28;20069;-64
2023/09/26 09:08:00;;;;;;;9.43;4.72;;;24.00;97.90;;;;;;4194186;28;20106;-63
2023/09/26 09:10:04;;;;;;;7.15;3.97;;;24.00;97.80;;;;;;4195733;28;20017;-63
2023/09/26 09:12:24;;;;;;;8.40;4.05;;;24.10;97.80;;;;;;4195711;28;20483;-66
2023/09/26 09:14:34;;;;;;;7.97;3.97;;;24.20;97.60;;;;;;4194786;28;20036;-64
2023/09/26 09:16:36;;;;;;;8.25;3.90;;;24.30;97.20;;;;;;4195626;28;20473;-63
2023/09/26 09:18:39;;;;;;;9.55;4.50;;;24.40;97.50;;;;;;4194448;28;20052;-64
2023/09/26 09:20:40;;;;;;;5.43;3.60;;;24.40;97.50;;;;;;4195245;28;20090;-64
2023/09/26 09:22:48;;;;;;;7.72;4.05;;;24.30;97.20;;;;;;4195065;28;20048;-63
2023/09/26 09:24:56;;;;;;;9.95;4.57;;;24.10;97.60;;;;;;4194275;28;20037;-62
2023/09/26 09:26:57;;;;;;;10.35;4.55;;;24.10;97.40;;;;;;4194166;28;20056;-62
2023/09/26 09:29:18;;;;;;;9.57;4.03;;;24.20;97.40;;;;;;4193966;28;20040;-63
2023/09/26 09:31:20;;;;;;;8.52;3.97;;;24.20;96.90;;;;;;4195554;28;20058;-63
2023/09/26 09:33:22;;;;;;;7.93;4.05;;;24.20;97.60;;;;;;4193522;28;20040;-63
2023/09/26 09:35:23;;;;;;;13.57;4.57;;;24.30;97.10;;;;;;4196025;28;20097;-63
2023/09/26 09:37:24;;;;;;;11.75;3.78;;;24.50;97.00;;;;;;4194551;28;20469;-62
2023/09/26 09:39:25;;;;;;;6.63;3.83;;;24.60;96.50;;;;;;4195694;28;20086;-63
2023/09/26 09:41:26;;;;;;;12.90;4.20;;;24.50;95.80;;;;;;4193921;28;20310;-60
2023/09/26 09:43:28;;;;;;;6.80;3.78;;;24.30;95.60;;;;;;4195625;28;20090;-63
2023/09/26 09:45:32;;;;;;;12.75;3.90;;;24.40;95.60;;;;;;4194581;28;20522;-63
2023/09/26 09:47:36;;;;;;;12.18;3.42;;;24.50;95.60;;;;;;4195007;28;20097;-62
2023/09/26 09:49:41;;;;;;;7.53;3.25;;;24.60;95.50;;;;;;4194092;28;20079;-63
2023/09/26 09:51:45;;;;;;;7.28;3.90;;;24.80;95.20;;;;;;4195267;28;20037;-63
2023/09/26 09:53:53;;;;;;;12.75;4.07;;;24.80;95.30;;;;;;4194629;28;20412;-63
2023/09/26 09:55:59;;;;;;;12.48;4.05;;;24.90;94.90;;;;;;4194967;28;20094;-64
2023/09/26 09:58:02;;;;;;;9.32;4.60;;;24.80;95.40;;;;;;4194392;28;20071;-62
2023/09/26 10:00:06;;;;;;;5.95;3.72;;;25.00;95.40;;;;;;4176540;28;20128;-62
2023/09/26 10:02:10;;;;;;;5.80;4.45;;;24.90;95.20;;;;;;4193569;28;20036;-62
2023/09/26 10:04:15;;;;;;;10.80;4.18;;;24.90;95.30;;;;;;4193677;28;20515;-62
2023/09/26 10:06:18;;;;;;;7.18;3.95;;;24.90;95.10;;;;;;4193782;28;20086;-61
2023/09/26 10:08:20;;;;;;;8.07;3.65;;;25.00;95.20;;;;;;4193543;28;20036;-60
2023/09/26 10:10:22;;;;;;;5.13;3.72;;;25.00;95.10;;;;;;4194949;28;20067;-60
2023/09/26 10:12:25;;;;;;;8.05;3.30;;;25.10;95.00;;;;;;4194080;28;20025;-61
2023/09/26 10:14:29;;;;;;;5.60;3.50;;;25.10;95.00;;;;;;4193971;28;20090;-61
2023/09/26 10:16:30;;;;;;;8.38;2.95;;;25.10;94.90;;;;;;4193044;28;20040;-60
2023/09/26 10:18:37;;;;;;;13.32;3.60;;;25.20;95.00;;;;;;4194168;28;20040;-61
2023/09/26 10:20:39;;;;;;;7.43;3.50;;;25.30;94.80;;;;;;4192976;28;20024;-59
2023/09/26 10:22:43;;;;;;;10.20;2.92;;;25.40;94.80;;;;;;4194915;28;20104;-59
2023/09/26 10:24:49;;;;;;;5.70;2.80;;;25.60;94.70;;;;;;4192843;28;20087;-61
2023/09/26 10:26:53;;;;;;;3.83;2.53;;;25.80;94.50;;;;;;4194771;28;20060;-59
2023/09/26 10:28:54;;;;;;;7.40;2.83;;;26.00;94.10;;;;;;4193732;28;20530;-60
2023/09/26 10:30:55;;;;;;;6.00;2.78;;;26.00;93.50;;;;;;4194083;28;20032;-62